Time;durP1;ratioP1;P1;durP2;ratioP2;P2;SDS_P1;SDS_P2;PMS_P1;PMS_P2;Temp;Humidity;BMP_temperature;BMP_pressure;BME280_temperature;BME280_humidity;BME280_pressure;Samples;Min_cycle;Max_cycle;Signal;HPM_P1;HPM_P2
2021/09/24 00:01:13;;;;;;;5.63;4.88;;;16.60;99.90;;;;;;5067804;28;20022;-77
2021/09/24 00:03:39;;;;;;;5.72;5.18;;;16.60;99.90;;;;;;5048223;28;20028;-77
2021/09/24 00:06:08;;;;;;;6.82;5.18;;;16.60;99.90;;;;;;5081265;28;20024;-77
2021/09/24 00:08:34;;;;;;;5.97;4.80;;;16.60;99.90;;;;;;5068866;28;20151;-77
2021/09/24 00:10:59;;;;;;;6.07;5.47;;;16.60;99.90;;;;;;5068047;28;20060;-77
2021/09/24 00:13:25;;;;;;;5.82;5.22;;;16.60;99.90;;;;;;5070900;28;20032;-77
2021/09/24 00:15:52;;;;;;;5.47;4.97;;;16.70;99.90;;;;;;5083929;28;20039;-77
2021/09/24 00:18:18;;;;;;;5.75;5.22;;;16.70;99.90;;;;;;5069163;28;20029;-77
2021/09/24 00:20:45;;;;;;;6.18;5.13;;;16.70;99.90;;;;;;5071101;28;20025;-78
2021/09/24 00:23:11;;;;;;;5.38;4.97;;;16.70;99.90;;;;;;5052070;28;20035;-77
2021/09/24 00:25:37;;;;;;;6.82;6.30;;;16.70;99.90;;;;;;5064051;28;20036;-78
2021/09/24 00:28:05;;;;;;;4.88;4.47;;;16.80;99.90;;;;;;5041444;28;20048;-78
2021/09/24 00:30:32;;;;;;;6.57;5.28;;;16.80;99.90;;;;;;5041761;28;20067;-77
2021/09/24 00:32:58;;;;;;;9.10;4.40;;;16.80;99.90;;;;;;5036641;28;20104;-77
2021/09/24 00:35:24;;;;;;;5.57;4.82;;;16.90;99.90;;;;;;5050640;28;20144;-77
2021/09/24 00:37:53;;;;;;;6.80;4.90;;;16.90;99.90;;;;;;5060562;28;20108;-77
2021/09/24 00:40:19;;;;;;;6.50;5.90;;;16.90;99.90;;;;;;5066502;28;20040;-77
2021/09/24 00:42:45;;;;;;;6.28;4.10;;;16.80;99.90;;;;;;5054022;28;20029;-77
2021/09/24 00:45:11;;;;;;;7.05;5.47;;;16.90;99.90;;;;;;5033221;28;20025;-77
2021/09/24 00:47:38;;;;;;;5.70;4.95;;;16.90;99.90;;;;;;5049843;28;20111;-77
2021/09/24 00:50:08;;;;;;;6.82;5.40;;;17.00;99.90;;;;;;5060565;28;20025;-77
2021/09/24 00:52:34;;;;;;;8.15;4.55;;;17.00;99.90;;;;;;5057397;28;20025;-77
2021/09/24 00:55:00;;;;;;;6.88;5.43;;;17.00;99.90;;;;;;5054946;28;20056;-80
2021/09/24 00:57:33;;;;;;;5.50;5.00;;;17.00;99.90;;;;;;5056599;28;20039;-77
2021/09/24 00:59:59;;;;;;;6.75;5.35;;;17.00;99.90;;;;;;5032527;28;20091;-77
2021/09/24 01:02:25;;;;;;;10.00;5.53;;;17.10;99.90;;;;;;5062135;28;20035;-77
2021/09/24 01:04:51;;;;;;;5.95;5.15;;;17.00;99.90;;;;;;5027144;28;20025;-77
2021/09/24 01:07:20;;;;;;;9.82;5.43;;;17.00;99.90;;;;;;5043990;28;20025;-77
2021/09/24 01:09:46;;;;;;;6.10;5.50;;;17.00;99.90;;;;;;5053808;28;20066;-77
2021/09/24 01:12:12;;;;;;;10.52;6.15;;;17.00;99.90;;;;;;5048521;28;20032;-77
2021/09/24 01:14:38;;;;;;;8.38;5.65;;;17.00;99.90;;;;;;5054602;28;20045;-77
2021/09/24 01:17:05;;;;;;;12.75;5.85;;;17.00;99.90;;;;;;5057502;28;20094;-77
2021/09/24 01:19:31;;;;;;;8.57;5.05;;;17.10;99.90;;;;;;5064719;28;20035;-77
2021/09/24 01:21:58;;;;;;;5.65;4.95;;;17.10;99.90;;;;;;5079103;28;20017;-78
2021/09/24 01:24:27;;;;;;;5.60;5.05;;;17.10;99.90;;;;;;5064590;28;20048;-77
2021/09/24 01:26:55;;;;;;;5.80;5.28;;;17.10;99.90;;;;;;5078471;28;20692;-77
2021/09/24 01:29:27;;;;;;;10.98;5.68;;;17.10;99.90;;;;;;5070277;28;20033;-77
2021/09/24 01:31:53;;;;;;;7.78;5.95;;;17.10;99.90;;;;;;5079087;28;20024;-77
2021/09/24 01:34:19;;;;;;;8.10;5.70;;;17.00;99.90;;;;;;5051594;28;20494;-77
2021/09/24 01:36:45;;;;;;;4.95;4.55;;;17.10;99.90;;;;;;5074577;28;20048;-78
2021/09/24 01:39:11;;;;;;;7.32;5.57;;;17.00;99.90;;;;;;5081540;28;20047;-77
2021/09/24 01:41:43;;;;;;;8.93;5.13;;;17.00;99.90;;;;;;5060569;28;20036;-77
2021/09/24 01:44:09;;;;;;;6.40;4.75;;;17.10;99.90;;;;;;5076329;28;20042;-77
2021/09/24 01:46:44;;;;;;;6.15;5.00;;;17.10;99.90;;;;;;5085375;28;20122;-78
2021/09/24 01:49:10;;;;;;;6.90;5.05;;;17.20;99.90;;;;;;5075736;28;20066;-77
2021/09/24 01:51:39;;;;;;;7.88;4.90;;;17.30;99.90;;;;;;5078498;28;20064;-77
2021/09/24 01:54:08;;;;;;;4.88;4.47;;;17.30;99.90;;;;;;5084443;28;20423;-77
2021/09/24 01:56:34;;;;;;;8.00;4.85;;;17.30;99.90;;;;;;5069763;28;20036;-77
2021/09/24 01:59:00;;;;;;;7.43;5.35;;;17.40;99.90;;;;;;5079384;28;20051;-78
2021/09/24 02:01:26;;;;;;;12.15;6.28;;;17.40;99.90;;;;;;5062245;28;20025;-77
2021/09/24 02:03:51;;;;;;;6.30;5.80;;;17.30;99.90;;;;;;5063069;28;20059;-77
2021/09/24 02:06:18;;;;;;;5.85;5.30;;;17.20;99.90;;;;;;5052475;28;20469;-77
2021/09/24 02:08:44;;;;;;;6.60;5.05;;;17.30;99.90;;;;;;5072975;28;20088;-77
2021/09/24 02:11:13;;;;;;;5.35;4.82;;;17.30;99.90;;;;;;5085401;28;20480;-77
2021/09/24 02:13:40;;;;;;;6.53;4.75;;;17.30;99.90;;;;;;5072493;28;20040;-78
2021/09/24 02:16:07;;;;;;;7.78;5.20;;;17.30;99.90;;;;;;5076466;28;20029;-78
2021/09/24 02:18:33;;;;;;;6.18;5.40;;;17.40;99.90;;;;;;5090402;28;20032;-78
2021/09/24 02:20:59;;;;;;;5.05;4.55;;;17.40;99.90;;;;;;5080152;28;20150;-78
2021/09/24 02:23:26;;;;;;;5.43;4.93;;;17.40;99.90;;;;;;5057796;28;20024;-77
2021/09/24 02:25:52;;;;;;;7.15;4.97;;;17.40;99.90;;;;;;5072786;28;20132;-78
2021/09/24 02:28:27;;;;;;;6.90;4.70;;;17.40;99.90;;;;;;5055065;28;20705;-78
2021/09/24 02:30:53;;;;;;;5.35;4.95;;;17.30;99.90;;;;;;5075528;28;20060;-78
2021/09/24 02:33:19;;;;;;;8.70;4.57;;;17.40;99.90;;;;;;5066485;28;20543;-78
2021/09/24 02:35:45;;;;;;;5.25;4.75;;;17.40;99.90;;;;;;5066403;28;20028;-78
2021/09/24 02:38:11;;;;;;;9.27;4.82;;;17.40;99.90;;;;;;5062344;28;20375;-78
2021/09/24 02:40:38;;;;;;;4.95;4.55;;;17.40;99.90;;;;;;5085542;28;20074;-78
2021/09/24 02:43:03;;;;;;;10.57;5.13;;;17.40;99.90;;;;;;5082400;28;20036;-78
2021/09/24 02:45:29;;;;;;;5.50;5.07;;;17.40;99.90;;;;;;5066236;28;20385;-78
2021/09/24 02:47:55;;;;;;;12.93;5.28;;;17.40;99.90;;;;;;5074953;28;20016;-78
2021/09/24 02:50:33;;;;;;;6.30;4.93;;;17.50;99.90;;;;;;5075283;28;20033;-78
2021/09/24 02:53:01;;;;;;;5.95;4.93;;;17.50;99.90;;;;;;5064815;28;20020;-78
2021/09/24 02:55:27;;;;;;;7.03;4.85;;;17.50;99.90;;;;;;5079458;28;20025;-78
2021/09/24 02:57:53;;;;;;;8.73;5.40;;;17.40;99.90;;;;;;5071374;28;20410;-78
2021/09/24 03:00:20;;;;;;;7.03;5.05;;;17.40;99.90;;;;;;5076955;28;20023;-77
2021/09/24 03:02:46;;;;;;;6.55;5.88;;;17.40;99.90;;;;;;5068144;28;20017;-77
2021/09/24 03:05:12;;;;;;;6.03;5.38;;;17.40;99.90;;;;;;5069307;28;20074;-77
2021/09/24 03:07:38;;;;;;;10.05;6.20;;;17.30;99.90;;;;;;5065846;28;20059;-77
2021/09/24 03:10:06;;;;;;;8.85;5.10;;;17.30;99.90;;;;;;5079835;28;20024;-77
2021/09/24 03:12:32;;;;;;;7.25;5.50;;;17.40;99.90;;;;;;5069874;28;20051;-77
2021/09/24 03:14:58;;;;;;;6.18;5.63;;;17.40;99.90;;;;;;5086394;28;20024;-77
2021/09/24 03:17:24;;;;;;;7.55;5.15;;;17.40;99.90;;;;;;5075256;28;20080;-77
2021/09/24 03:19:50;;;;;;;6.82;5.57;;;17.30;99.90;;;;;;5077924;28;20075;-77
2021/09/24 03:22:16;;;;;;;10.30;5.03;;;17.40;99.90;;;;;;5056729;28;20025;-77
2021/09/24 03:24:42;;;;;;;6.15;5.43;;;17.40;99.90;;;;;;5076573;28;20032;-77
2021/09/24 03:27:08;;;;;;;5.70;5.25;;;17.40;99.90;;;;;;5079654;28;20028;-77
2021/09/24 03:29:35;;;;;;;8.48;4.85;;;17.40;99.90;;;;;;5073853;28;20028;-77
2021/09/24 03:32:01;;;;;;;5.07;4.28;;;17.40;99.90;;;;;;5075164;28;20024;-77
2021/09/24 03:34:27;;;;;;;6.00;5.35;;;17.40;99.90;;;;;;5076886;28;20161;-77
2021/09/24 03:36:53;;;;;;;5.60;4.72;;;17.40;99.90;;;;;;5075270;28;20029;-77
2021/09/24 03:39:19;;;;;;;8.07;4.95;;;17.40;99.90;;;;;;5076455;28;20081;-77
2021/09/24 03:45:05;;;;;;;5.38;4.97;;;17.40;99.90;;;;;;5075003;28;20148;-77
2021/09/24 03:47:33;;;;;;;9.93;5.25;;;17.40;99.90;;;;;;5075068;28;20045;-77
2021/09/24 03:50:02;;;;;;;6.13;5.40;;;17.40;99.90;;;;;;5070123;28;20081;-76
2021/09/24 03:52:27;;;;;;;9.02;4.95;;;17.50;99.90;;;;;;5075354;28;20028;-77
2021/09/24 03:54:56;;;;;;;7.45;4.93;;;17.50;99.90;;;;;;5085281;28;20047;-77
2021/09/24 03:57:22;;;;;;;6.22;5.47;;;17.50;99.90;;;;;;5044407;28;20096;-77
2021/09/24 03:59:51;;;;;;;6.65;4.70;;;17.50;99.90;;;;;;5069801;28;20185;-77
2021/09/24 04:02:17;;;;;;;5.22;4.82;;;17.60;99.90;;;;;;5069073;28;20032;-77
2021/09/24 04:04:43;;;;;;;10.07;5.68;;;17.50;99.90;;;;;;5055968;28;20028;-77
2021/09/24 04:07:09;;;;;;;7.45;4.57;;;17.60;99.90;;;;;;5057096;28;20027;-77
2021/09/24 04:09:38;;;;;;;7.18;4.85;;;17.50;99.90;;;;;;5075905;28;20103;-77
2021/09/24 04:12:04;;;;;;;6.00;4.60;;;17.60;99.90;;;;;;5070091;28;20060;-77
2021/09/24 04:14:30;;;;;;;6.22;5.65;;;17.50;99.90;;;;;;5054106;28;20033;-77
2021/09/24 04:16:56;;;;;;;5.78;4.97;;;17.60;99.90;;;;;;5070233;28;20029;-77
2021/09/24 04:19:22;;;;;;;8.95;5.50;;;17.60;99.90;;;;;;5071350;28;20035;-77
2021/09/24 04:21:49;;;;;;;5.43;4.93;;;17.60;99.90;;;;;;5072487;28;20144;-77
2021/09/24 04:24:17;;;;;;;7.97;5.00;;;17.60;99.90;;;;;;5044011;28;20111;-77
2021/09/24 04:26:44;;;;;;;6.88;4.75;;;17.60;99.90;;;;;;5071587;28;20113;-77
2021/09/24 04:29:10;;;;;;;9.10;5.25;;;17.70;99.90;;;;;;5066100;28;20029;-77
2021/09/24 04:31:36;;;;;;;5.93;5.32;;;17.60;99.90;;;;;;5068102;28;20028;-77
2021/09/24 04:34:02;;;;;;;5.75;5.25;;;17.70;99.90;;;;;;5062650;28;20028;-77
2021/09/24 04:36:28;;;;;;;7.78;5.63;;;17.70;99.90;;;;;;5068816;28;20037;-78
2021/09/24 04:38:55;;;;;;;5.22;4.72;;;17.70;99.90;;;;;;5072702;28;20075;-77
2021/09/24 04:41:22;;;;;;;9.95;5.03;;;17.70;99.90;;;;;;5072343;28;20066;-78
2021/09/24 04:43:47;;;;;;;8.88;5.63;;;17.60;99.90;;;;;;5070794;28;20032;-78
2021/09/24 04:46:13;;;;;;;5.13;4.78;;;17.60;99.90;;;;;;5068618;28;20024;-77
2021/09/24 04:48:47;;;;;;;9.85;5.32;;;17.60;99.90;;;;;;5059575;28;20031;-77
2021/09/24 04:51:13;;;;;;;14.02;5.93;;;17.60;99.90;;;;;;5060984;28;20051;-77
2021/09/24 04:53:48;;;;;;;6.75;5.45;;;17.60;99.90;;;;;;5065137;28;20056;-77
2021/09/24 04:56:14;;;;;;;13.48;5.72;;;17.60;99.90;;;;;;5085154;28;20031;-77
2021/09/24 04:58:41;;;;;;;12.38;5.63;;;17.60;99.90;;;;;;5073690;28;20086;-77
2021/09/24 05:01:09;;;;;;;13.95;5.53;;;17.60;99.90;;;;;;5072327;28;20032;-77
2021/09/24 05:03:59;;;;;;;10.45;6.00;;;17.70;99.90;;;;;;5069036;28;20024;-78
2021/09/24 05:06:34;;;;;;;8.63;5.50;;;17.70;99.90;;;;;;5060469;28;20046;-78
2021/09/24 05:09:12;;;;;;;6.00;5.28;;;17.70;99.90;;;;;;5070041;28;20047;-78
2021/09/24 05:12:33;;;;;;;12.85;5.45;;;17.70;99.90;;;;;;5060655;28;20063;-77
2021/09/24 05:15:08;;;;;;;10.25;5.85;;;17.70;99.90;;;;;;5058057;28;20179;-78
2021/09/24 05:17:40;;;;;;;20.52;6.50;;;17.80;99.90;;;;;;5070259;28;20029;-78
2021/09/24 05:20:06;;;;;;;5.43;4.88;;;17.80;99.90;;;;;;5076765;28;20074;-78
2021/09/24 05:22:46;;;;;;;13.95;6.00;;;17.80;99.90;;;;;;5048790;28;20040;-78
2021/09/24 05:25:33;;;;;;;14.40;5.78;;;17.80;99.90;;;;;;5077365;28;20052;-77
2021/09/24 05:28:01;;;;;;;20.55;5.80;;;17.70;99.90;;;;;;5074844;28;20117;-78
2021/09/24 05:30:34;;;;;;;9.73;5.63;;;17.80;99.90;;;;;;5060519;28;20028;-77
2021/09/24 05:33:02;;;;;;;;;;;17.90;99.90;;;;;;5069904;28;20017;-78
2021/09/24 05:35:34;;;;;;;7.93;5.15;;;18.00;99.90;;;;;;5070267;28;19915;-78
2021/09/24 05:42:25;;;;;;;10.13;5.82;;;18.00;99.90;;;;;;4971545;28;20050;-78
2021/09/24 05:52:19;;;;;;;9.05;5.50;;;18.00;99.90;;;;;;4954418;28;20404;-78
2021/09/24 05:55:03;;;;;;;13.05;5.10;;;17.90;99.90;;;;;;4957837;28;20057;-78
2021/09/24 05:57:42;;;;;;;6.63;5.28;;;18.00;99.90;;;;;;4994101;28;20048;-78
2021/09/24 06:00:42;;;;;;;;;;;;;;;;;;;;;
2021/09/24 06:14:01;;;;;;;;;;;;;;;;;;;;;
2021/09/24 06:24:02;;;;;;;10.05;5.95;;;18.30;99.90;;;;;;4970968;28;20078;-77
2021/09/24 06:26:28;;;;;;;15.65;7.10;;;18.30;99.90;;;;;;4965750;28;20031;-75
2021/09/24 06:28:54;;;;;;;17.27;7.22;;;18.40;99.90;;;;;;4999100;28;20044;-75
2021/09/24 06:31:20;;;;;;;8.65;6.53;;;18.30;99.90;;;;;;5086257;28;20024;-75
2021/09/24 06:33:46;;;;;;;13.55;6.28;;;18.50;99.90;;;;;;5076602;28;20152;-75
2021/09/24 06:36:17;;;;;;;13.63;6.78;;;18.60;99.90;;;;;;5089379;28;20067;-75
2021/09/24 06:38:44;;;;;;;10.95;6.13;;;18.70;99.90;;;;;;5084343;28;20393;-75
2021/09/24 06:41:10;;;;;;;12.50;5.90;;;18.70;99.90;;;;;;5084417;28;20050;-75
2021/09/24 06:43:38;;;;;;;16.13;6.60;;;18.80;99.90;;;;;;5084754;28;20028;-75
2021/09/24 06:46:04;;;;;;;16.77;6.38;;;18.90;99.90;;;;;;5082351;28;20081;-75
2021/09/24 06:48:30;;;;;;;13.27;6.90;;;18.80;99.90;;;;;;5052777;28;20033;-75
2021/09/24 06:50:57;;;;;;;14.23;6.95;;;18.80;99.90;;;;;;5082182;28;20093;-75
2021/09/24 06:53:23;;;;;;;14.55;6.50;;;18.80;99.90;;;;;;5082998;28;20557;-75
2021/09/24 06:55:49;;;;;;;6.03;5.40;;;19.00;99.90;;;;;;5077484;28;20039;-75
2021/09/24 06:58:15;;;;;;;13.25;6.30;;;19.10;99.90;;;;;;5071622;28;20072;-75
2021/09/24 07:00:41;;;;;;;12.55;6.13;;;19.20;99.90;;;;;;5079166;28;20039;-75
2021/09/24 07:03:07;;;;;;;20.23;5.22;;;19.30;99.90;;;;;;5082881;28;20039;-75
2021/09/24 07:05:32;;;;;;;11.50;5.63;;;19.30;99.90;;;;;;5074570;28;20050;-75
2021/09/24 07:07:58;;;;;;;17.88;6.45;;;19.40;99.90;;;;;;5074764;28;20023;-77
2021/09/24 07:10:24;;;;;;;10.07;5.65;;;19.50;99.90;;;;;;5078135;28;20424;-75
2021/09/24 07:12:50;;;;;;;11.27;5.45;;;19.60;99.90;;;;;;5089875;28;20024;-75
2021/09/24 07:15:16;;;;;;;12.90;6.47;;;19.70;99.90;;;;;;5084157;28;20099;-77
2021/09/24 07:17:42;;;;;;;9.32;5.45;;;19.60;99.90;;;;;;5077266;28;20032;-75
2021/09/24 07:20:09;;;;;;;12.57;6.97;;;19.60;99.90;;;;;;5078624;28;20032;-76
2021/09/24 07:22:35;;;;;;;14.00;6.38;;;19.80;99.90;;;;;;5069641;28;20028;-75
2021/09/24 07:25:01;;;;;;;12.80;6.28;;;19.80;99.90;;;;;;5074859;28;20073;-75
2021/09/24 07:27:27;;;;;;;6.75;5.55;;;19.90;99.90;;;;;;5067995;28;20031;-75
2021/09/24 07:29:53;;;;;;;12.55;6.22;;;20.00;99.90;;;;;;5073502;28;20032;-75
2021/09/24 07:32:19;;;;;;;6.47;5.30;;;20.10;99.90;;;;;;5072815;28;20425;-76
2021/09/24 07:34:45;;;;;;;11.65;6.03;;;20.10;99.90;;;;;;5069261;28;20028;-75
2021/09/24 07:37:12;;;;;;;9.82;6.13;;;20.30;99.90;;;;;;5060724;28;20039;-75
2021/09/24 07:39:39;;;;;;;8.27;5.00;;;20.40;99.90;;;;;;5062281;28;20114;-75
2021/09/24 07:42:05;;;;;;;10.63;5.97;;;20.40;99.90;;;;;;5065864;28;20020;-74
2021/09/24 07:44:32;;;;;;;12.68;6.35;;;20.40;99.90;;;;;;5072952;28;20029;-74
2021/09/24 07:46:58;;;;;;;11.57;5.10;;;20.50;99.90;;;;;;5054126;28;20028;-74
2021/09/24 07:49:24;;;;;;;7.38;5.75;;;20.60;99.90;;;;;;5068511;28;20020;-75
2021/09/24 07:52:00;;;;;;;9.77;6.43;;;20.90;99.90;;;;;;5072548;28;20029;-75
2021/09/24 07:54:26;;;;;;;16.42;6.05;;;21.10;99.90;;;;;;5076697;28;20029;-75
2021/09/24 07:56:53;;;;;;;8.50;5.30;;;21.30;99.90;;;;;;5082264;28;20607;-75
2021/09/24 07:59:20;;;;;;;9.10;5.38;;;21.50;99.90;;;;;;5065368;28;20027;-75
2021/09/24 08:01:46;;;;;;;13.45;5.57;;;21.50;99.90;;;;;;5077475;28;20024;-75
2021/09/24 08:04:12;;;;;;;13.32;5.38;;;21.60;99.90;;;;;;5067124;28;20032;-75
2021/09/24 08:06:38;;;;;;;15.52;5.57;;;21.50;99.90;;;;;;5066683;28;20025;-75
2021/09/24 08:09:04;;;;;;;7.13;5.15;;;21.40;99.90;;;;;;5074377;28;20032;-76
2021/09/24 08:11:31;;;;;;;10.88;6.20;;;21.20;99.90;;;;;;5082025;28;20054;-74
2021/09/24 08:13:57;;;;;;;8.15;5.43;;;21.20;99.90;;;;;;5070369;28;20051;-75
2021/09/24 08:16:32;;;;;;;9.68;5.93;;;21.40;99.90;;;;;;5076863;28;20056;-75
2021/09/24 08:21:56;;;;;;;9.70;5.65;;;21.60;99.90;;;;;;5075303;28;20069;-75
2021/09/24 08:25:04;;;;;;;14.48;6.30;;;21.70;99.90;;;;;;5075361;28;20045;-77
2021/09/24 08:27:57;;;;;;;9.10;5.55;;;21.80;99.90;;;;;;5071295;28;20047;-75
2021/09/24 08:30:44;;;;;;;5.78;4.72;;;21.90;99.90;;;;;;5073707;28;20186;-75
2021/09/24 08:33:51;;;;;;;5.22;4.47;;;21.90;99.90;;;;;;5055258;28;20123;-75
2021/09/24 08:36:17;;;;;;;11.05;5.45;;;22.00;99.90;;;;;;5074577;28;20028;-75
2021/09/24 08:39:12;;;;;;;6.13;4.65;;;21.90;99.90;;;;;;5073707;28;20029;-75
2021/09/24 08:41:46;;;;;;;13.50;4.55;;;22.00;99.90;;;;;;5084339;28;20035;-75
2021/09/24 08:44:26;;;;;;;;;;;;;;;;;;;;;
2021/09/24 08:46:52;;;;;;;5.65;4.93;;;22.00;99.90;;;;;;5074240;28;20102;-75
2021/09/24 08:49:28;;;;;;;6.82;4.95;;;22.00;99.90;;;;;;5067218;28;20052;-74
2021/09/24 09:01:27;;;;;;;14.18;4.47;;;21.90;99.90;;;;;;5085332;28;20059;-75
2021/09/24 09:03:55;;;;;;;9.50;4.45;;;22.20;99.90;;;;;;5060431;28;20021;-75
2021/09/24 09:06:22;;;;;;;6.93;6.22;;;22.30;99.90;;;;;;5054135;28;20025;-75
2021/09/24 09:08:48;;;;;;;6.97;4.43;;;22.40;99.90;;;;;;5057822;28;20155;-78
2021/09/24 09:11:18;;;;;;;7.20;4.15;;;22.50;99.90;;;;;;5075038;28;20032;-75
2021/09/24 09:13:47;;;;;;;5.18;4.53;;;22.60;99.90;;;;;;5072898;28;20025;-75
2021/09/24 09:16:16;;;;;;;7.38;5.18;;;22.70;99.90;;;;;;5073854;28;20020;-75
2021/09/24 09:18:45;;;;;;;6.00;5.10;;;22.80;99.90;;;;;;5072160;28;20116;-75
2021/09/24 09:21:13;;;;;;;5.53;4.70;;;22.90;99.90;;;;;;5058742;28;20106;-75
2021/09/24 09:23:43;;;;;;;6.97;5.22;;;23.10;99.90;;;;;;5078865;28;20116;-75
2021/09/24 09:26:10;;;;;;;8.77;4.18;;;23.20;99.90;;;;;;5047854;28;20031;-75
2021/09/24 09:28:41;;;;;;;5.55;4.35;;;23.10;99.90;;;;;;5062078;28;20549;-75
2021/09/24 09:31:27;;;;;;;7.47;5.03;;;22.90;99.90;;;;;;5058409;28;20029;-75
2021/09/24 09:33:59;;;;;;;4.90;4.50;;;23.00;99.90;;;;;;5056121;28;20358;-75
2021/09/24 09:36:34;;;;;;;10.00;4.85;;;22.80;99.90;;;;;;5068114;28;20082;-75
2021/09/24 09:39:10;;;;;;;5.45;4.40;;;22.90;99.90;;;;;;5059768;28;20120;-75
2021/09/24 09:41:39;;;;;;;6.82;4.65;;;23.00;99.90;;;;;;5076225;28;20047;-75
2021/09/24 09:44:07;;;;;;;5.82;4.60;;;22.80;99.90;;;;;;5077369;28;20596;-75
2021/09/24 09:46:35;;;;;;;11.35;4.53;;;22.60;99.90;;;;;;5080748;28;20048;-75
2021/09/24 09:49:10;;;;;;;9.45;4.13;;;22.80;99.90;;;;;;5093871;28;20024;-75
2021/09/24 09:51:39;;;;;;;7.32;4.35;;;22.90;99.90;;;;;;5074304;28;20029;-75
2021/09/24 09:54:06;;;;;;;3.95;3.63;;;22.90;99.90;;;;;;5069292;28;20033;-76
2021/09/24 09:56:38;;;;;;;14.95;4.68;;;23.00;99.90;;;;;;5075723;28;20071;-75
2021/09/24 09:59:27;;;;;;;5.38;3.60;;;23.10;99.90;;;;;;5077910;28;20035;-75
2021/09/24 10:02:15;;;;;;;5.35;4.10;;;23.20;99.90;;;;;;5069807;28;20097;-76
2021/09/24 10:04:47;;;;;;;4.60;3.33;;;23.40;99.90;;;;;;5075117;28;20032;-76
2021/09/24 10:07:18;;;;;;;6.72;3.83;;;23.40;99.90;;;;;;5080743;28;20432;-75
2021/09/24 10:09:46;;;;;;;4.35;3.50;;;23.10;99.90;;;;;;5080522;28;20023;-75
2021/09/24 10:12:20;;;;;;;5.93;3.58;;;23.00;99.90;;;;;;5070325;28;20031;-75
2021/09/24 10:14:54;;;;;;;3.80;3.50;;;23.10;99.90;;;;;;5075581;28;20088;-75
2021/09/24 10:17:22;;;;;;;5.50;4.07;;;23.20;99.90;;;;;;5081381;28;20017;-75
2021/09/24 10:19:58;;;;;;;9.68;3.50;;;23.20;99.90;;;;;;5074755;28;20089;-75
2021/09/24 10:22:26;;;;;;;8.32;3.70;;;23.30;99.90;;;;;;5074088;28;20024;-75
2021/09/24 10:24:54;;;;;;;7.20;4.10;;;23.40;99.90;;;;;;5082693;28;20048;-75
2021/09/24 10:27:26;;;;;;;3.47;3.17;;;23.50;99.90;;;;;;5075857;28;20191;-75
2021/09/24 10:29:52;;;;;;;4.18;3.15;;;23.30;99.90;;;;;;5071376;28;20052;-75
2021/09/24 10:32:31;;;;;;;6.30;3.85;;;23.40;99.90;;;;;;5073281;28;20024;-75
2021/09/24 10:34:59;;;;;;;5.95;3.20;;;23.50;99.90;;;;;;5077624;28;20079;-75
2021/09/24 10:37:27;;;;;;;3.90;3.30;;;23.30;99.90;;;;;;5081082;28;20090;-75
2021/09/24 10:40:01;;;;;;;4.72;3.15;;;23.40;99.90;;;;;;5086504;28;20079;-76
2021/09/24 10:43:01;;;;;;;3.42;3.08;;;23.20;99.90;;;;;;5080027;28;20028;-76
2021/09/24 10:45:38;;;;;;;5.60;3.05;;;23.20;99.90;;;;;;5079790;28;20024;-76
2021/09/24 10:48:44;;;;;;;4.97;4.47;;;23.10;99.90;;;;;;5081866;28;20028;-75
2021/09/24 10:51:40;;;;;;;;;;;;;;;;;;;;;
2021/09/24 10:57:53;;;;;;;4.78;4.38;;;23.00;99.90;;;;;;5026255;28;20499;-75
2021/09/24 11:00:47;;;;;;;8.43;4.45;;;22.80;99.90;;;;;;5015145;28;20045;-75
2021/09/24 11:03:29;;;;;;;4.35;3.65;;;22.80;99.90;;;;;;5017787;28;20128;-75
2021/09/24 11:06:04;;;;;;;3.95;3.55;;;22.90;99.90;;;;;;5016777;28;20026;-75
2021/09/24 11:08:54;;;;;;;3.47;3.17;;;22.90;99.90;;;;;;5040265;28;20032;-76
2021/09/24 11:11:20;;;;;;;6.50;3.83;;;23.00;99.90;;;;;;5067816;28;20013;-75
2021/09/24 11:14:02;;;;;;;4.95;3.63;;;23.00;99.90;;;;;;5075810;28;20083;-75
2021/09/24 11:16:52;;;;;;;4.30;3.90;;;22.70;99.90;;;;;;5081234;28;20028;-79
2021/09/24 11:19:41;;;;;;;9.23;4.45;;;22.80;99.90;;;;;;5072442;28;20028;-76
2021/09/24 11:22:50;;;;;;;5.88;3.17;;;22.80;99.90;;;;;;5088985;28;20028;-75
2021/09/24 11:25:56;;;;;;;8.63;3.35;;;23.00;99.90;;;;;;5089266;28;20070;-75
2021/09/24 11:29:22;;;;;;;7.07;3.28;;;23.20;99.90;;;;;;5072023;28;20094;-75
2021/09/24 11:42:30;;;;;;;4.18;3.53;;;23.10;99.90;;;;;;5066502;28;20153;-75
2021/09/24 11:49:01;;;;;;;5.55;3.22;;;23.40;99.90;;;;;;5074827;28;20028;-76
2021/09/24 11:51:37;;;;;;;;;;;;;;;;;;;;;
2021/09/24 12:07:50;;;;;;;6.57;3.50;;;22.70;99.90;;;;;;4980286;28;20026;-76
2021/09/24 12:13:18;;;;;;;4.50;3.00;;;22.80;99.90;;;;;;4993997;28;20040;-76
2021/09/24 12:15:56;;;;;;;6.25;3.10;;;23.10;99.90;;;;;;5066820;28;20072;-75
2021/09/24 12:19:03;;;;;;;14.18;3.28;;;23.10;99.90;;;;;;5072000;28;20096;-76
2021/09/24 12:25:20;;;;;;;11.82;3.50;;;23.10;99.90;;;;;;5023346;28;20135;-76
2021/09/24 12:27:47;;;;;;;4.70;3.33;;;23.40;99.90;;;;;;5005512;28;20057;-76
2021/09/24 12:30:19;;;;;;;5.43;3.53;;;23.50;99.90;;;;;;5062982;28;20041;-75
2021/09/24 12:32:48;;;;;;;8.25;3.50;;;23.40;99.90;;;;;;5064467;28;20024;-75
2021/09/24 12:35:23;;;;;;;3.72;3.17;;;23.20;99.90;;;;;;5072747;28;20029;-75
2021/09/24 12:37:52;;;;;;;4.90;3.50;;;23.20;99.90;;;;;;5081166;28;20069;-75
2021/09/24 12:40:24;;;;;;;4.18;3.58;;;22.80;99.90;;;;;;5057472;28;20055;-76
2021/09/24 12:45:51;;;;;;;9.95;4.63;;;22.50;99.90;;;;;;5074183;28;20044;-75
2021/09/24 12:48:32;;;;;;;9.68;3.88;;;22.60;99.90;;;;;;5073443;28;20020;-75
2021/09/24 12:50:59;;;;;;;5.43;3.33;;;22.70;99.90;;;;;;5060093;28;20016;-76
2021/09/24 12:53:28;;;;;;;6.25;4.43;;;22.70;99.90;;;;;;5065783;28;20032;-75
2021/09/24 12:55:57;;;;;;;6.65;4.13;;;22.70;99.90;;;;;;5054458;28;20032;-75
2021/09/24 12:58:33;;;;;;;8.52;3.83;;;23.00;99.90;;;;;;5056216;28;20028;-76
2021/09/24 13:01:00;;;;;;;10.48;3.60;;;22.90;99.90;;;;;;5068282;28;20016;-75
2021/09/24 13:03:31;;;;;;;8.13;3.53;;;22.80;99.90;;;;;;5062574;28;20021;-75
2021/09/24 13:06:01;;;;;;;;;;;22.80;99.90;;;;;;5073270;28;20101;-75
2021/09/24 13:08:28;;;;;;;3.72;3.42;;;22.80;99.90;;;;;;5071905;28;20467;-76
2021/09/24 13:10:56;;;;;;;5.80;2.95;;;22.80;99.90;;;;;;5068463;28;20024;-75
2021/09/24 13:13:23;;;;;;;5.20;4.00;;;22.90;99.90;;;;;;5070292;28;20111;-75
2021/09/24 13:15:51;;;;;;;6.07;3.70;;;23.10;99.90;;;;;;5069394;28;20031;-75
2021/09/24 13:18:20;;;;;;;7.28;4.15;;;23.20;99.90;;;;;;5069512;28;20103;-75
2021/09/24 13:20:49;;;;;;;5.38;4.97;;;23.30;99.90;;;;;;5072748;28;20024;-76
2021/09/24 13:23:34;;;;;;;9.52;4.85;;;23.30;99.90;;;;;;5066459;28;20028;-75
2021/09/24 13:26:01;;;;;;;8.48;4.95;;;23.30;99.90;;;;;;5082494;28;20032;-76
2021/09/24 13:28:27;;;;;;;14.25;5.63;;;23.10;99.90;;;;;;5081884;28;20036;-76
2021/09/24 13:31:01;;;;;;;5.20;4.70;;;22.90;99.90;;;;;;5079719;28;20073;-76
2021/09/24 13:33:27;;;;;;;4.78;4.35;;;23.00;99.90;;;;;;5067842;28;20623;-75
2021/09/24 13:35:56;;;;;;;9.80;5.15;;;23.00;99.90;;;;;;5079786;28;20028;-76
2021/09/24 13:38:22;;;;;;;6.47;4.78;;;23.10;99.90;;;;;;5076694;28;20056;-76
2021/09/24 13:40:48;;;;;;;7.43;4.75;;;23.10;99.90;;;;;;5081785;28;20375;-76
2021/09/24 13:43:14;;;;;;;8.05;4.40;;;23.20;99.90;;;;;;5082831;28;20362;-77
2021/09/24 13:45:40;;;;;;;7.82;4.43;;;23.10;99.90;;;;;;5079619;28;20099;-75
2021/09/24 13:48:06;;;;;;;6.88;4.35;;;23.20;99.90;;;;;;5068099;28;20025;-75
2021/09/24 13:50:33;;;;;;;7.72;4.65;;;23.10;99.90;;;;;;5087370;28;20100;-75
2021/09/24 13:53:04;;;;;;;5.78;3.97;;;23.10;99.90;;;;;;5090908;28;20086;-74
2021/09/24 13:55:30;;;;;;;;;;;23.10;99.90;;;;;;5076476;28;20111;-75
2021/09/24 13:57:56;;;;;;;8.35;4.00;;;23.00;99.90;;;;;;5079732;28;20289;-76
2021/09/24 14:00:22;;;;;;;5.55;5.00;;;23.10;99.90;;;;;;5078805;28;20037;-74
2021/09/24 14:02:48;;;;;;;5.35;4.32;;;23.20;99.90;;;;;;5064678;28;20036;-74
2021/09/24 14:05:15;;;;;;;8.48;4.68;;;23.40;99.90;;;;;;5097209;28;20020;-76
2021/09/24 14:07:41;;;;;;;9.35;4.25;;;23.50;99.90;;;;;;5104175;28;20084;-75
2021/09/24 14:10:23;;;;;;;5.55;5.03;;;23.70;99.90;;;;;;5092221;28;20024;-75
2021/09/24 14:12:51;;;;;;;5.78;4.95;;;23.60;99.90;;;;;;5101305;28;20043;-74
2021/09/24 14:15:17;;;;;;;5.15;3.90;;;23.60;99.90;;;;;;5095883;28;20048;-75
2021/09/24 14:17:46;;;;;;;14.35;6.28;;;23.60;99.90;;;;;;5083580;28;20032;-76
2021/09/24 14:20:13;;;;;;;15.10;7.18;;;23.50;99.90;;;;;;5084018;28;20024;-75
2021/09/24 14:22:41;;;;;;;6.80;6.22;;;23.40;99.90;;;;;;5089064;28;20462;-75
2021/09/24 14:25:08;;;;;;;6.18;5.55;;;23.50;99.90;;;;;;5076810;28;20028;-77
2021/09/24 14:27:34;;;;;;;7.43;5.85;;;23.50;99.90;;;;;;5081914;28;20024;-75
2021/09/24 14:30:01;;;;;;;13.02;6.60;;;23.50;99.90;;;;;;5087179;28;20020;-75
2021/09/24 14:32:27;;;;;;;7.68;6.50;;;23.40;99.90;;;;;;5083863;28;20031;-75
2021/09/24 14:34:53;;;;;;;14.43;6.57;;;23.30;99.90;;;;;;5087807;28;20117;-76